Time;durP1;ratioP1;P1;durP2;ratioP2;P2;SDS_P1;SDS_P2;PMS_P1;PMS_P2;Temp;Humidity;BMP_temperature;BMP_pressure;BME280_temperature;BME280_humidity;BME280_pressure;Samples;Min_cycle;Max_cycle;Signal;HPM_P1;HPM_P2
2023/05/28 00:01:06;;;;;;;12.33;5.50;;;;;;;;;;6136383;23;20392;-92
2023/05/28 00:03:32;;;;;;;10.20;5.00;;;;;;;;;;6137323;23;20384;-93
2023/05/28 00:05:58;;;;;;;10.70;4.80;;;;;;;;;;6134595;23;20504;-93
2023/05/28 00:08:25;;;;;;;5.20;3.73;;;;;;;;;;6136738;23;20453;-91
2023/05/28 00:10:51;;;;;;;7.93;4.10;;;;;;;;;;6135125;23;20400;-93
2023/05/28 00:13:18;;;;;;;6.63;4.37;;;;;;;;;;6137274;23;20396;-93
2023/05/28 00:15:44;;;;;;;9.10;4.43;;;;;;;;;;6136657;23;20407;-93
2023/05/28 00:18:14;;;;;;;11.33;4.37;;;;;;;;;;6137344;23;20381;-91
2023/05/28 00:20:40;;;;;;;6.77;4.47;;;;;;;;;;6138589;23;20389;-93
2023/05/28 00:23:06;;;;;;;12.40;5.47;;;;;;;;;;6136630;23;20417;-92
2023/05/28 00:25:32;;;;;;;8.60;4.93;;;;;;;;;;6139705;23;20425;-92
2023/05/28 00:27:58;;;;;;;8.43;4.40;;;;;;;;;;6162079;23;20366;-93
2023/05/28 00:30:24;;;;;;;5.47;3.63;;;;;;;;;;6164080;23;20400;-94
2023/05/28 00:32:50;;;;;;;8.20;4.60;;;;;;;;;;6137549;23;20500;-93
2023/05/28 00:35:16;;;;;;;6.00;4.50;;;;;;;;;;6163184;23;20377;-93
2023/05/28 00:37:42;;;;;;;9.83;6.13;;;;;;;;;;6134981;23;20420;-93
2023/05/28 00:40:08;;;;;;;10.57;4.17;;;;;;;;;;6138278;23;20368;-94
2023/05/28 00:42:35;;;;;;;6.43;4.47;;;;;;;;;;6135708;23;20396;-93
2023/05/28 00:45:02;;;;;;;7.17;3.17;;;;;;;;;;6139153;23;20429;-90
2023/05/28 00:47:28;;;;;;;7.43;4.30;;;;;;;;;;6136144;23;20431;-90
2023/05/28 00:49:55;;;;;;;6.80;4.40;;;;;;;;;;6138285;23;20377;-93
2023/05/28 00:52:21;;;;;;;5.80;4.07;;;;;;;;;;6134972;23;20392;-91
2023/05/28 00:54:47;;;;;;;8.87;4.00;;;;;;;;;;6138358;23;20401;-93
2023/05/28 00:57:14;;;;;;;5.80;4.23;;;;;;;;;;6136781;23;20427;-93
2023/05/28 00:59:40;;;;;;;9.90;4.40;;;;;;;;;;6137829;23;20396;-93
2023/05/28 01:02:06;;;;;;;6.77;3.70;;;;;;;;;;6136810;23;20443;-90
2023/05/28 01:04:33;;;;;;;5.70;4.33;;;;;;;;;;6137426;23;20433;-93
2023/05/28 01:06:59;;;;;;;8.77;4.37;;;;;;;;;;6137122;23;20460;-90
2023/05/28 01:09:28;;;;;;;6.03;3.83;;;;;;;;;;6163293;23;20365;-93
2023/05/28 01:11:54;;;;;;;6.30;4.30;;;;;;;;;;6138413;23;20381;-94
2023/05/28 01:14:20;;;;;;;5.80;3.67;;;;;;;;;;6141070;23;20397;-94
2023/05/28 01:16:49;;;;;;;10.13;4.10;;;;;;;;;;6138422;23;20388;-88
2023/05/28 01:19:18;;;;;;;6.00;3.93;;;;;;;;;;6138209;23;20396;-91
2023/05/28 01:21:44;;;;;;;8.03;3.30;;;;;;;;;;6164641;23;20416;-91
2023/05/28 01:24:10;;;;;;;9.70;4.10;;;;;;;;;;6137455;23;20409;-94
2023/05/28 01:26:36;;;;;;;6.37;4.10;;;;;;;;;;6138488;23;20753;-89
2023/05/28 01:29:09;;;;;;;7.17;3.90;;;;;;;;;;6137119;23;20424;-91
2023/05/28 01:31:35;;;;;;;7.50;3.13;;;;;;;;;;6137734;23;20401;-93
2023/05/28 01:34:01;;;;;;;7.80;4.30;;;;;;;;;;6138285;23;20385;-92
2023/05/28 01:36:29;;;;;;;6.20;3.70;;;;;;;;;;6162017;23;20369;-93
2023/05/28 01:38:58;;;;;;;5.07;3.60;;;;;;;;;;6138121;23;20430;-93
2023/05/28 01:41:25;;;;;;;6.93;4.00;;;;;;;;;;6137484;23;20385;-92
2023/05/28 01:43:52;;;;;;;9.33;4.37;;;;;;;;;;6137270;23;20389;-93
2023/05/28 01:46:18;;;;;;;6.10;4.17;;;;;;;;;;6163957;23;20369;-93
2023/05/28 01:48:44;;;;;;;11.43;4.10;;;;;;;;;;6135852;23;20771;-92
2023/05/28 01:51:10;;;;;;;9.43;3.60;;;;;;;;;;6136977;23;20440;-91
2023/05/28 01:53:36;;;;;;;6.33;4.23;;;;;;;;;;6135305;23;20460;-92
2023/05/28 01:56:02;;;;;;;4.50;3.43;;;;;;;;;;6136185;23;20857;-92
2023/05/28 01:58:28;;;;;;;6.30;4.40;;;;;;;;;;6161675;23;20848;-91
2023/05/28 02:01:00;;;;;;;9.40;4.53;;;;;;;;;;6138469;23;20389;-93
2023/05/28 02:03:26;;;;;;;6.80;4.40;;;;;;;;;;6135914;23;20373;-92
2023/05/28 02:05:52;;;;;;;9.90;3.80;;;;;;;;;;6138717;23;20523;-92
2023/05/28 02:08:18;;;;;;;9.80;3.73;;;;;;;;;;6138008;23;20384;-92
2023/05/28 02:10:44;;;;;;;7.83;3.67;;;;;;;;;;6137195;23;20448;-92
2023/05/28 02:13:10;;;;;;;5.33;3.90;;;;;;;;;;6136267;23;20536;-91
2023/05/28 02:15:36;;;;;;;9.67;4.30;;;;;;;;;;6162488;23;20373;-92
2023/05/28 02:18:02;;;;;;;10.30;5.30;;;;;;;;;;6136417;23;20381;-92
2023/05/28 02:20:28;;;;;;;9.80;4.20;;;;;;;;;;6137119;23;20381;-89
2023/05/28 02:22:54;;;;;;;8.70;4.50;;;;;;;;;;6134438;23;20806;-92
2023/05/28 02:25:21;;;;;;;7.07;4.07;;;;;;;;;;6136473;23;20429;-91
2023/05/28 02:27:47;;;;;;;6.70;3.80;;;;;;;;;;6155099;23;20386;-89
2023/05/28 02:30:14;;;;;;;12.30;3.87;;;;;;;;;;6137332;23;20927;-90
2023/05/28 02:32:40;;;;;;;9.03;4.00;;;;;;;;;;6135991;23;20433;-92
2023/05/28 02:35:07;;;;;;;8.33;3.60;;;;;;;;;;6137163;23;20491;-92
2023/05/28 02:37:33;;;;;;;5.50;4.10;;;;;;;;;;6135919;23;20404;-91
2023/05/28 02:40:00;;;;;;;6.53;3.83;;;;;;;;;;6138392;23;20392;-91
2023/05/28 02:42:26;;;;;;;8.10;3.97;;;;;;;;;;6135900;23;20384;-93
2023/05/28 02:44:52;;;;;;;8.30;3.47;;;;;;;;;;6135839;23;20429;-92
2023/05/28 02:47:18;;;;;;;5.63;3.80;;;;;;;;;;6135243;23;20766;-92
2023/05/28 02:49:44;;;;;;;5.93;4.60;;;;;;;;;;6160138;23;20377;-92
2023/05/28 02:52:10;;;;;;;9.73;3.70;;;;;;;;;;6135026;23;20392;-91
2023/05/28 02:54:36;;;;;;;6.60;4.27;;;;;;;;;;6136577;23;20904;-91
2023/05/28 02:57:02;;;;;;;7.37;5.00;;;;;;;;;;6135102;23;20377;-91
2023/05/28 02:59:28;;;;;;;8.73;4.27;;;;;;;;;;6158155;23;20467;-92
2023/05/28 03:01:54;;;;;;;8.13;3.67;;;;;;;;;;6136199;23;20381;-90
2023/05/28 03:04:20;;;;;;;9.07;4.47;;;;;;;;;;6133186;23;20404;-93
2023/05/28 03:06:46;;;;;;;6.20;4.27;;;;;;;;;;6135449;23;20408;-90
2023/05/28 03:09:12;;;;;;;5.00;3.87;;;;;;;;;;6159087;23;20392;-89
2023/05/28 03:11:38;;;;;;;6.10;4.53;;;;;;;;;;6136193;23;20869;-92
2023/05/28 03:14:04;;;;;;;7.00;3.83;;;;;;;;;;6132607;23;20388;-91
2023/05/28 03:16:32;;;;;;;6.60;4.00;;;;;;;;;;6137067;23;20373;-90
2023/05/28 03:18:58;;;;;;;9.10;4.00;;;;;;;;;;6134557;23;20388;-91
2023/05/28 03:21:24;;;;;;;9.30;4.10;;;;;;;;;;6159960;23;20965;-92
2023/05/28 03:23:50;;;;;;;7.90;3.50;;;;;;;;;;6134747;23;20405;-91
2023/05/28 03:26:16;;;;;;;6.13;3.97;;;;;;;;;;6137063;23;20428;-92
2023/05/28 03:28:42;;;;;;;7.13;4.30;;;;;;;;;;6134401;23;20389;-92
2023/05/28 03:31:08;;;;;;;6.50;4.00;;;;;;;;;;6138654;23;20369;-90
2023/05/28 03:33:34;;;;;;;9.10;4.43;;;;;;;;;;6136686;23;20381;-91
2023/05/28 03:36:00;;;;;;;10.30;4.80;;;;;;;;;;6159014;23;20767;-89
2023/05/28 03:38:26;;;;;;;8.27;4.40;;;;;;;;;;6134098;23;20432;-92
2023/05/28 03:40:52;;;;;;;5.33;3.93;;;;;;;;;;6160340;23;20698;-91
2023/05/28 03:43:18;;;;;;;6.70;4.40;;;;;;;;;;6162776;23;20391;-91
2023/05/28 03:45:44;;;;;;;6.17;4.20;;;;;;;;;;6137123;23;20633;-92
2023/05/28 03:48:10;;;;;;;7.50;4.37;;;;;;;;;;6134676;23;20457;-89
2023/05/28 03:50:36;;;;;;;7.50;3.57;;;;;;;;;;6138062;23;20381;-91
2023/05/28 03:53:02;;;;;;;4.97;3.73;;;;;;;;;;6134439;23;20381;-92
2023/05/28 03:55:28;;;;;;;6.80;4.60;;;;;;;;;;6138004;23;20385;-91
2023/05/28 03:57:54;;;;;;;8.70;4.67;;;;;;;;;;6136455;23;20472;-90
2023/05/28 04:00:20;;;;;;;10.17;5.53;;;;;;;;;;6137169;23;20380;-91
2023/05/28 04:02:46;;;;;;;6.77;3.60;;;;;;;;;;6106066;23;20813;-92
2023/05/28 04:05:12;;;;;;;5.93;4.10;;;;;;;;;;6081436;23;20417;-89
2023/05/28 04:07:38;;;;;;;8.67;4.10;;;;;;;;;;6080214;23;20389;-91
2023/05/28 04:10:05;;;;;;;8.27;4.97;;;;;;;;;;6080551;23;20424;-90
2023/05/28 04:12:30;;;;;;;6.13;3.87;;;;;;;;;;6079719;23;20382;-91
2023/05/28 04:14:56;;;;;;;9.33;4.33;;;;;;;;;;6082610;23;20430;-92
2023/05/28 04:17:23;;;;;;;7.20;4.30;;;;;;;;;;6080879;23;20408;-91
2023/05/28 04:19:51;;;;;;;10.33;4.33;;;;;;;;;;6083382;23;20424;-92
2023/05/28 04:22:17;;;;;;;13.87;4.90;;;;;;;;;;6105448;23;20374;-91
2023/05/28 04:24:43;;;;;;;10.53;4.00;;;;;;;;;;6081679;23;20528;-93
2023/05/28 04:27:09;;;;;;;8.93;4.93;;;;;;;;;;6079500;23;20437;-92
2023/05/28 04:29:35;;;;;;;7.73;4.23;;;;;;;;;;6078554;23;20478;-93
2023/05/28 04:32:01;;;;;;;7.90;4.77;;;;;;;;;;6077066;23;20382;-91
2023/05/28 04:34:27;;;;;;;9.53;5.17;;;;;;;;;;6142641;23;20456;-92
2023/05/28 04:36:56;;;;;;;10.53;4.03;;;;;;;;;;6157738;23;20377;-92
2023/05/28 04:39:22;;;;;;;6.10;4.03;;;;;;;;;;6133429;23;20388;-91
2023/05/28 04:41:49;;;;;;;5.80;3.40;;;;;;;;;;6157283;23;20379;-91
2023/05/28 04:44:16;;;;;;;7.70;4.33;;;;;;;;;;6156674;23;20813;-91
2023/05/28 04:46:45;;;;;;;8.03;4.73;;;;;;;;;;6129399;23;20380;-91
2023/05/28 04:49:14;;;;;;;10.00;5.40;;;;;;;;;;6155576;23;20361;-91
2023/05/28 04:51:41;;;;;;;5.60;4.57;;;;;;;;;;6132143;23;20389;-89
2023/05/28 04:54:07;;;;;;;8.37;3.77;;;;;;;;;;6131018;23;20452;-90
2023/05/28 04:56:33;;;;;;;6.77;4.47;;;;;;;;;;6134577;23;20457;-91
2023/05/28 04:58:59;;;;;;;17.83;4.77;;;;;;;;;;6132963;23;20389;-91
2023/05/28 05:01:25;;;;;;;7.20;3.80;;;;;;;;;;6163352;23;20369;-90
2023/05/28 05:03:51;;;;;;;9.47;4.47;;;;;;;;;;6133772;23;20436;-90
2023/05/28 05:06:17;;;;;;;6.90;4.07;;;;;;;;;;6162703;23;20480;-89
2023/05/28 05:08:45;;;;;;;5.50;4.17;;;;;;;;;;6165526;23;20361;-91
2023/05/28 05:11:12;;;;;;;7.17;4.70;;;;;;;;;;6142929;23;20618;-89
2023/05/28 05:13:38;;;;;;;8.20;3.80;;;;;;;;;;6110829;23;20442;-91
2023/05/28 05:16:04;;;;;;;8.20;4.30;;;;;;;;;;6091990;23;20402;-92
2023/05/28 05:18:30;;;;;;;7.20;4.60;;;;;;;;;;6057506;23;20414;-91
2023/05/28 05:20:57;;;;;;;6.33;4.10;;;;;;;;;;6025260;23;20443;-91
2023/05/28 05:23:23;;;;;;;7.03;4.60;;;;;;;;;;6025546;23;20394;-90
2023/05/28 05:25:49;;;;;;;11.80;6.17;;;;;;;;;;6051517;23;20478;-90
2023/05/28 05:28:15;;;;;;;7.40;3.20;;;;;;;;;;6022683;23;20391;-90
2023/05/28 05:30:41;;;;;;;7.30;4.00;;;;;;;;;;6025387;23;20388;-89
2023/05/28 05:33:07;;;;;;;7.63;4.07;;;;;;;;;;6023666;23;20792;-90
2023/05/28 05:35:33;;;;;;;6.90;4.20;;;;;;;;;;6027287;23;20386;-90
2023/05/28 05:37:59;;;;;;;9.60;4.30;;;;;;;;;;6027762;23;20391;-90
2023/05/28 05:40:25;;;;;;;6.00;4.50;;;;;;;;;;6049458;23;20860;-90
2023/05/28 05:42:51;;;;;;;9.00;4.00;;;;;;;;;;6049107;23;20381;-91
2023/05/28 05:45:20;;;;;;;8.37;4.20;;;;;;;;;;6050103;23;20998;-91
2023/05/28 05:47:46;;;;;;;6.03;3.63;;;;;;;;;;6027087;23;20463;-90
2023/05/28 05:50:12;;;;;;;5.77;3.73;;;;;;;;;;6048693;23;20788;-92
2023/05/28 05:52:39;;;;;;;8.13;4.43;;;;;;;;;;6025438;23;20391;-89
2023/05/28 05:55:06;;;;;;;9.27;4.90;;;;;;;;;;6032286;23;20854;-90
2023/05/28 05:57:32;;;;;;;8.40;4.53;;;;;;;;;;6083917;23;20453;-90
2023/05/28 05:59:58;;;;;;;9.10;3.80;;;;;;;;;;6082675;23;20461;-91
2023/05/28 06:02:25;;;;;;;10.60;4.43;;;;;;;;;;6081495;23;20382;-91
2023/05/28 06:04:51;;;;;;;5.70;4.07;;;;;;;;;;6081008;23;20421;-91
2023/05/28 06:07:17;;;;;;;6.07;4.27;;;;;;;;;;6082790;23;20389;-90
2023/05/28 06:09:43;;;;;;;7.83;4.03;;;;;;;;;;6081196;23;20421;-91
2023/05/28 06:12:10;;;;;;;8.00;4.70;;;;;;;;;;6107193;23;20397;-90
2023/05/28 06:14:38;;;;;;;10.07;5.13;;;;;;;;;;6134219;23;20511;-90
2023/05/28 06:17:05;;;;;;;5.53;3.90;;;;;;;;;;6137588;23;20385;-89
2023/05/28 06:19:31;;;;;;;8.93;4.60;;;;;;;;;;6134520;23;20400;-91
2023/05/28 06:21:57;;;;;;;4.90;3.63;;;;;;;;;;6136113;23;20905;-90
2023/05/28 06:24:23;;;;;;;8.60;5.27;;;;;;;;;;6134427;23;21119;-90
2023/05/28 06:26:49;;;;;;;7.93;4.43;;;;;;;;;;6136268;23;20405;-91
2023/05/28 06:29:16;;;;;;;6.90;3.97;;;;;;;;;;6134824;23;20433;-90
2023/05/28 06:31:42;;;;;;;8.17;4.20;;;;;;;;;;6135437;23;20400;-91
2023/05/28 06:34:08;;;;;;;8.13;4.70;;;;;;;;;;6133814;23;20455;-89
2023/05/28 06:36:35;;;;;;;10.43;4.60;;;;;;;;;;6158968;23;20371;-91
2023/05/28 06:39:02;;;;;;;7.70;4.93;;;;;;;;;;6135653;23;20384;-90
2023/05/28 06:41:28;;;;;;;6.67;4.13;;;;;;;;;;6136956;23;20440;-89
2023/05/28 06:43:54;;;;;;;6.83;4.60;;;;;;;;;;6134458;23;20449;-89
2023/05/28 06:46:21;;;;;;;8.23;5.37;;;;;;;;;;6163548;23;20548;-90
2023/05/28 06:48:47;;;;;;;6.27;4.17;;;;;;;;;;6134702;23;20389;-89
2023/05/28 06:51:13;;;;;;;10.03;4.10;;;;;;;;;;6138468;23;20404;-92
2023/05/28 06:53:39;;;;;;;10.47;4.10;;;;;;;;;;6159412;23;20384;-92
2023/05/28 06:56:06;;;;;;;9.90;4.23;;;;;;;;;;6137641;23;20381;-90
2023/05/28 06:58:32;;;;;;;7.03;5.20;;;;;;;;;;6166158;23;20397;-91
2023/05/28 07:01:01;;;;;;;7.97;4.70;;;;;;;;;;6138499;23;20385;-91
2023/05/28 07:03:27;;;;;;;8.27;3.90;;;;;;;;;;6157576;23;20483;-90
2023/05/28 07:05:53;;;;;;;5.93;3.90;;;;;;;;;;6133009;23;20421;-91
2023/05/28 07:08:19;;;;;;;6.00;4.13;;;;;;;;;;6131572;23;20392;-92
2023/05/28 07:10:45;;;;;;;7.43;3.93;;;;;;;;;;6133893;23;20455;-92
2023/05/28 07:13:12;;;;;;;7.23;4.70;;;;;;;;;;6131874;23;20408;-92
2023/05/28 07:15:40;;;;;;;6.30;3.90;;;;;;;;;;6156660;23;20440;-91
2023/05/28 07:18:05;;;;;;;5.50;4.40;;;;;;;;;;6133310;23;20388;-91
2023/05/28 07:20:31;;;;;;;9.57;4.43;;;;;;;;;;6135634;23;20385;-92
2023/05/28 07:22:57;;;;;;;5.90;3.80;;;;;;;;;;6135043;23;20451;-91
2023/05/28 07:25:23;;;;;;;7.40;5.87;;;;;;;;;;6133258;23;20735;-92
2023/05/28 07:27:49;;;;;;;10.87;5.63;;;;;;;;;;6133234;23;20385;-91
2023/05/28 07:30:15;;;;;;;8.03;4.40;;;;;;;;;;6132880;23;20467;-92
2023/05/28 07:32:41;;;;;;;5.67;4.30;;;;;;;;;;6135024;23;20877;-92
2023/05/28 07:35:08;;;;;;;12.00;5.30;;;;;;;;;;6133344;23;20408;-92
2023/05/28 07:37:34;;;;;;;8.53;4.13;;;;;;;;;;6134806;23;20392;-92
2023/05/28 07:40:00;;;;;;;5.23;4.40;;;;;;;;;;6131821;23;20408;-92
2023/05/28 07:42:26;;;;;;;5.23;4.13;;;;;;;;;;6132690;23;20462;-92
2023/05/28 07:44:52;;;;;;;7.60;4.37;;;;;;;;;;6132744;23;20421;-91
2023/05/28 07:47:18;;;;;;;5.33;4.20;;;;;;;;;;6133789;23;20447;-92
2023/05/28 07:49:44;;;;;;;8.40;4.90;;;;;;;;;;6130765;23;20381;-89
2023/05/28 07:52:11;;;;;;;6.63;4.43;;;;;;;;;;6128601;23;20381;-91
2023/05/28 07:54:39;;;;;;;8.70;4.40;;;;;;;;;;6156484;23;20384;-90
2023/05/28 07:57:05;;;;;;;5.20;3.60;;;;;;;;;;6103184;23;20425;-91
2023/05/28 07:59:32;;;;;;;7.03;4.90;;;;;;;;;;6077188;23;20428;-89
2023/05/28 08:01:58;;;;;;;7.90;4.60;;;;;;;;;;6077680;23;20402;-91
2023/05/28 08:04:24;;;;;;;5.93;3.57;;;;;;;;;;6078751;23;20428;-91
2023/05/28 08:06:50;;;;;;;5.40;3.77;;;;;;;;;;6078612;23;20412;-90
2023/05/28 08:09:17;;;;;;;7.63;4.30;;;;;;;;;;6077639;23;20791;-90
2023/05/28 08:11:43;;;;;;;8.03;4.67;;;;;;;;;;6078706;23;20520;-90
2023/05/28 08:14:09;;;;;;;5.77;4.27;;;;;;;;;;6077733;23;20869;-91
2023/05/28 08:16:35;;;;;;;10.27;4.47;;;;;;;;;;6104005;23;20381;-94
2023/05/28 08:19:01;;;;;;;8.57;4.43;;;;;;;;;;6081545;23;20385;-94
2023/05/28 08:21:27;;;;;;;8.20;5.77;;;;;;;;;;6080370;23;20382;-90
2023/05/28 08:23:55;;;;;;;7.33;3.90;;;;;;;;;;6077666;23;21008;-90
2023/05/28 08:26:21;;;;;;;8.07;4.50;;;;;;;;;;6079614;23;20479;-90
2023/05/28 08:28:47;;;;;;;7.80;4.50;;;;;;;;;;6122005;23;20408;-91
2023/05/28 08:31:13;;;;;;;10.00;4.13;;;;;;;;;;6136399;23;20373;-90
2023/05/28 08:33:39;;;;;;;6.93;3.83;;;;;;;;;;6132273;23;20390;-91
2023/05/28 08:36:06;;;;;;;9.00;5.23;;;;;;;;;;6133056;23;20515;-90
2023/05/28 08:38:33;;;;;;;9.97;4.70;;;;;;;;;;6130996;23;21167;-89
2023/05/28 08:40:59;;;;;;;7.20;4.13;;;;;;;;;;6136554;23;20463;-88
2023/05/28 08:43:25;;;;;;;6.80;4.07;;;;;;;;;;6134689;23;20384;-90
2023/05/28 08:45:52;;;;;;;10.50;4.50;;;;;;;;;;6136056;23;20448;-89
2023/05/28 08:48:18;;;;;;;6.20;4.20;;;;;;;;;;6134025;23;20416;-91
2023/05/28 08:50:47;;;;;;;10.07;4.80;;;;;;;;;;6133358;23;20441;-90
2023/05/28 08:53:14;;;;;;;7.60;4.93;;;;;;;;;;6132827;23;20389;-91
2023/05/28 08:55:40;;;;;;;15.93;5.40;;;;;;;;;;6135134;23;20381;-90
2023/05/28 08:58:06;;;;;;;8.00;5.17;;;;;;;;;;6134968;23;20385;-91
2023/05/28 09:00:32;;;;;;;8.80;4.80;;;;;;;;;;6136626;23;20785;-92
2023/05/28 09:02:58;;;;;;;5.67;4.23;;;;;;;;;;6104173;23;20374;-90
2023/05/28 09:05:24;;;;;;;7.33;4.47;;;;;;;;;;6102842;23;20835;-90
2023/05/28 09:07:50;;;;;;;6.30;4.20;;;;;;;;;;6101723;23;20425;-90
2023/05/28 09:10:16;;;;;;;8.63;4.73;;;;;;;;;;6102216;23;20418;-90
2023/05/28 09:12:56;;;;;;;6.67;4.57;;;;;;;;;;6076854;23;20409;-91
2023/05/28 09:15:22;;;;;;;11.37;5.80;;;;;;;;;;6079219;23;20361;-90
2023/05/28 09:17:48;;;;;;;6.80;4.30;;;;;;;;;;6127146;23;20400;-90
2023/05/28 09:20:14;;;;;;;6.53;4.43;;;;;;;;;;6076437;23;20381;-89
2023/05/28 09:22:40;;;;;;;7.90;4.63;;;;;;;;;;6076622;23;20393;-89
2023/05/28 09:25:10;;;;;;;7.70;4.60;;;;;;;;;;6077393;23;20436;-92
2023/05/28 09:27:36;;;;;;;12.07;4.83;;;;;;;;;;6079723;23;20378;-91
2023/05/28 09:30:07;;;;;;;6.47;4.43;;;;;;;;;;6076754;23;20477;-90
2023/05/28 09:32:37;;;;;;;8.43;4.73;;;;;;;;;;6066613;23;20390;-90
2023/05/28 09:35:07;;;;;;;10.10;5.10;;;;;;;;;;6127222;23;20384;-89
2023/05/28 09:37:37;;;;;;;8.73;5.67;;;;;;;;;;6152572;23;20385;-90
2023/05/28 09:40:04;;;;;;;5.87;4.00;;;;;;;;;;6128680;23;20388;-90
2023/05/28 09:42:41;;;;;;;9.00;5.20;;;;;;;;;;6130729;23;20392;-91
2023/05/28 09:45:08;;;;;;;7.07;4.23;;;;;;;;;;6131643;23;20425;-89
2023/05/28 09:47:42;;;;;;;9.80;4.73;;;;;;;;;;6136084;23;20396;-91
2023/05/28 09:50:08;;;;;;;8.10;5.20;;;;;;;;;;6133013;23;20415;-93
2023/05/28 09:52:34;;;;;;;8.83;4.90;;;;;;;;;;6157198;23;20369;-92
2023/05/28 09:55:03;;;;;;;8.63;4.87;;;;;;;;;;6131808;23;20405;-92
2023/05/28 09:57:32;;;;;;;7.50;4.80;;;;;;;;;;6133528;23;20390;-93
2023/05/28 10:00:00;;;;;;;10.03;5.00;;;;;;;;;;6131760;23;20391;-91
2023/05/28 10:02:37;;;;;;;9.33;4.53;;;;;;;;;;6132622;23;20392;-91
2023/05/28 10:05:03;;;;;;;9.23;4.17;;;;;;;;;;6132899;23;20431;-93
2023/05/28 10:07:30;;;;;;;5.27;4.17;;;;;;;;;;6137202;23;20396;-92
2023/05/28 10:09:56;;;;;;;5.77;4.07;;;;;;;;;;6131325;23;20405;-92
2023/05/28 10:12:23;;;;;;;7.23;4.20;;;;;;;;;;6135528;23;20400;-91
2023/05/28 10:14:49;;;;;;;11.43;4.47;;;;;;;;;;6131328;23;20404;-92
2023/05/28 10:17:15;;;;;;;8.90;5.30;;;;;;;;;;6129770;23;20716;-92
2023/05/28 10:19:41;;;;;;;7.33;4.70;;;;;;;;;;6131907;23;20381;-92
2023/05/28 10:22:07;;;;;;;6.57;4.60;;;;;;;;;;6132805;23;20386;-91
2023/05/28 10:24:33;;;;;;;6.10;4.90;;;;;;;;;;6129064;23;20435;-91
2023/05/28 10:27:00;;;;;;;7.93;4.80;;;;;;;;;;6132600;23;20389;-91
2023/05/28 10:29:27;;;;;;;6.90;4.40;;;;;;;;;;6131973;23;20420;-91
2023/05/28 10:32:02;;;;;;;11.30;4.67;;;;;;;;;;6133886;23;20391;-93
2023/05/28 10:34:30;;;;;;;10.30;5.20;;;;;;;;;;6131507;23;20452;-92
2023/05/28 10:36:56;;;;;;;6.10;4.97;;;;;;;;;;6131856;23;20381;-92
2023/05/28 10:39:22;;;;;;;8.13;4.70;;;;;;;;;;6128440;23;20381;-91
2023/05/28 10:41:48;;;;;;;6.93;4.47;;;;;;;;;;6132126;23;20407;-90
2023/05/28 10:44:14;;;;;;;6.00;4.00;;;;;;;;;;6128902;23;20424;-91
2023/05/28 10:46:40;;;;;;;13.20;4.80;;;;;;;;;;6132070;23;20385;-90
2023/05/28 10:49:10;;;;;;;11.70;4.53;;;;;;;;;;6129487;23;20713;-91
2023/05/28 10:51:55;;;;;;;5.87;4.63;;;;;;;;;;6157555;23;21105;-91
2023/05/28 10:54:24;;;;;;;8.67;4.90;;;;;;;;;;6154431;23;20460;-92
2023/05/28 10:57:10;;;;;;;6.70;4.73;;;;;;;;;;6129335;23;20401;-90
2023/05/28 10:59:49;;;;;;;6.90;4.57;;;;;;;;;;6131781;23;20388;-91
2023/05/28 11:02:27;;;;;;;9.20;5.27;;;;;;;;;;6156801;23;20369;-91
2023/05/28 11:04:58;;;;;;;6.50;4.80;;;;;;;;;;6157096;23;20723;-90
2023/05/28 11:07:29;;;;;;;13.20;4.93;;;;;;;;;;6134696;23;20868;-91
2023/05/28 11:09:56;;;;;;;9.17;4.63;;;;;;;;;;6133405;23;20396;-90
2023/05/28 11:12:22;;;;;;;6.60;4.30;;;;;;;;;;6131695;23;20431;-91
2023/05/28 11:14:48;;;;;;;7.93;4.93;;;;;;;;;;6157857;23;20341;-91
2023/05/28 11:17:14;;;;;;;9.90;4.60;;;;;;;;;;6134666;23;20451;-92
2023/05/28 11:19:50;;;;;;;7.93;5.03;;;;;;;;;;6133253;23;20381;-89
2023/05/28 11:22:17;;;;;;;7.80;4.50;;;;;;;;;;6132321;23;20396;-89
2023/05/28 11:24:55;;;;;;;9.37;4.47;;;;;;;;;;6153815;23;20790;-91
2023/05/28 11:27:22;;;;;;;9.13;4.80;;;;;;;;;;6133608;23;21027;-91
2023/05/28 11:29:48;;;;;;;6.33;4.30;;;;;;;;;;6156319;23;20695;-92
2023/05/28 11:32:14;;;;;;;7.77;4.20;;;;;;;;;;6154022;23;20369;-88
2023/05/28 11:34:40;;;;;;;13.67;5.63;;;;;;;;;;6128065;23;20440;-90
2023/05/28 11:37:07;;;;;;;9.60;4.80;;;;;;;;;;6132158;23;21112;-91
2023/05/28 11:39:34;;;;;;;7.50;5.07;;;;;;;;;;6154350;23;20431;-92
2023/05/28 11:42:00;;;;;;;6.43;4.63;;;;;;;;;;6130931;23;20444;-92
2023/05/28 11:44:26;;;;;;;9.77;4.63;;;;;;;;;;6129806;23;20393;-91
2023/05/28 11:46:53;;;;;;;8.70;4.40;;;;;;;;;;6135195;23;20431;-90
2023/05/28 11:49:20;;;;;;;6.70;4.77;;;;;;;;;;6132761;23;20380;-90
2023/05/28 11:51:46;;;;;;;9.30;5.20;;;;;;;;;;6131214;23;20498;-90
2023/05/28 11:54:12;;;;;;;8.43;5.00;;;;;;;;;;6130925;23;20381;-90
2023/05/28 11:56:37;;;;;;;8.77;5.10;;;;;;;;;;6132779;23;20373;-90
2023/05/28 11:59:04;;;;;;;6.70;5.13;;;;;;;;;;6155471;23;20376;-90
2023/05/28 12:01:34;;;;;;;7.20;4.93;;;;;;;;;;6162647;23;20396;-95
2023/05/28 12:04:08;;;;;;;8.00;4.67;;;;;;;;;;6170511;23;20418;-96
2023/05/28 12:06:53;;;;;;;8.20;5.40;;;;;;;;;;6122237;23;20383;-94
2023/05/28 12:09:28;;;;;;;12.33;4.70;;;;;;;;;;6148155;23;20373;-95
2023/05/28 12:12:11;;;;;;;7.30;4.40;;;;;;;;;;6179643;23;20388;-94
2023/05/28 12:14:37;;;;;;;7.30;4.67;;;;;;;;;;6159114;23;20431;-89
2023/05/28 12:17:10;;;;;;;5.57;4.90;;;;;;;;;;6157027;23;20365;-90
2023/05/28 12:19:36;;;;;;;5.37;4.33;;;;;;;;;;6132556;23;20381;-88
2023/05/28 12:22:02;;;;;;;6.43;4.40;;;;;;;;;;6137908;23;20373;-92
2023/05/28 12:24:28;;;;;;;5.17;4.37;;;;;;;;;;6131982;23;20404;-89
2023/05/28 12:26:54;;;;;;;7.40;4.20;;;;;;;;;;6136653;23;20902;-89
2023/05/28 12:29:20;;;;;;;6.33;4.40;;;;;;;;;;6156500;23;20396;-94
2023/05/28 12:31:46;;;;;;;5.83;4.47;;;;;;;;;;6133757;23;20824;-92
2023/05/28 12:34:12;;;;;;;6.60;4.97;;;;;;;;;;6155219;23;20382;-91
2023/05/28 12:36:38;;;;;;;6.33;4.10;;;;;;;;;;6157728;23;20377;-93
2023/05/28 12:39:07;;;;;;;11.00;4.43;;;;;;;;;;6133640;23;20416;-92
2023/05/28 12:41:33;;;;;;;8.00;4.40;;;;;;;;;;6159008;23;20365;-92
2023/05/28 12:43:59;;;;;;;7.83;4.27;;;;;;;;;;6132546;23;20415;-90
2023/05/28 12:46:25;;;;;;;5.60;4.00;;;;;;;;;;6132499;23;20416;-92
2023/05/28 12:48:51;;;;;;;6.93;4.93;;;;;;;;;;6134554;23;21098;-92
2023/05/28 12:51:17;;;;;;;7.00;5.13;;;;;;;;;;6134151;23;20384;-92
2023/05/28 12:53:43;;;;;;;7.60;4.40;;;;;;;;;;6132398;23;20383;-89
2023/05/28 12:56:09;;;;;;;7.67;5.00;;;;;;;;;;6161276;23;20383;-93
2023/05/28 12:58:35;;;;;;;6.43;4.90;;;;;;;;;;6131786;23;20361;-91
2023/05/28 13:01:01;;;;;;;9.30;5.70;;;;;;;;;;6133212;23;20388;-92
2023/05/28 13:03:27;;;;;;;12.17;5.10;;;;;;;;;;6130325;23;20919;-89
2023/05/28 13:05:53;;;;;;;10.10;4.47;;;;;;;;;;6157943;23;20853;-89
2023/05/28 13:08:19;;;;;;;6.37;4.63;;;;;;;;;;6130613;23;20395;-90
2023/05/28 13:10:45;;;;;;;6.20;5.33;;;;;;;;;;6132373;23;20380;-92
2023/05/28 13:13:11;;;;;;;7.70;4.40;;;;;;;;;;6131947;23;20412;-91
2023/05/28 13:15:38;;;;;;;9.37;4.70;;;;;;;;;;6133505;23;20385;-92
2023/05/28 13:18:07;;;;;;;6.23;4.47;;;;;;;;;;6133492;23;20416;-91
2023/05/28 13:20:32;;;;;;;7.80;4.77;;;;;;;;;;6134993;23;20388;-90
2023/05/28 13:22:58;;;;;;;7.23;4.37;;;;;;;;;;6133520;23;20408;-90
2023/05/28 13:25:26;;;;;;;9.33;5.10;;;;;;;;;;6136839;23;20436;-92
2023/05/28 13:27:52;;;;;;;7.13;5.03;;;;;;;;;;6162620;23;20138;-91
2023/05/28 13:30:18;;;;;;;7.50;4.87;;;;;;;;;;6134477;23;20503;-90
2023/05/28 13:32:44;;;;;;;7.77;5.00;;;;;;;;;;6135260;23;20845;-91
2023/05/28 13:35:11;;;;;;;8.20;6.03;;;;;;;;;;6134969;23;20377;-91
2023/05/28 13:37:38;;;;;;;7.57;5.77;;;;;;;;;;6160822;23;20804;-91
2023/05/28 13:40:07;;;;;;;5.83;4.60;;;;;;;;;;6134485;23;20432;-92
2023/05/28 13:42:34;;;;;;;6.50;4.67;;;;;;;;;;6135723;23;20385;-92
2023/05/28 13:45:00;;;;;;;11.17;5.33;;;;;;;;;;6133554;23;20417;-91
2023/05/28 13:47:26;;;;;;;7.43;4.77;;;;;;;;;;6132759;23;20412;-91
2023/05/28 13:49:52;;;;;;;8.77;5.50;;;;;;;;;;6133535;23;20400;-92
2023/05/28 13:52:18;;;;;;;5.83;4.43;;;;;;;;;;6134050;23;20598;-92
2023/05/28 13:54:44;;;;;;;9.17;4.60;;;;;;;;;;6158560;23;20456;-91
2023/05/28 13:57:10;;;;;;;5.93;4.23;;;;;;;;;;6157837;23;20396;-90
2023/05/28 13:59:36;;;;;;;6.67;5.00;;;;;;;;;;6158498;23;20365;-90
2023/05/28 14:02:03;;;;;;;9.50;5.50;;;;;;;;;;6136712;23;20377;-90
2023/05/28 14:04:29;;;;;;;5.90;4.50;;;;;;;;;;6133685;23;20376;-91
2023/05/28 14:06:55;;;;;;;8.70;4.93;;;;;;;;;;6159510;23;20930;-90
2023/05/28 14:09:21;;;;;;;7.30;4.90;;;;;;;;;;6160091;23;20361;-91
2023/05/28 14:11:47;;;;;;;5.57;4.50;;;;;;;;;;6134886;23;20407;-91
2023/05/28 14:14:13;;;;;;;6.60;4.40;;;;;;;;;;6134480;23;20460;-92
2023/05/28 14:16:40;;;;;;;5.20;3.70;;;;;;;;;;6135405;23;20443;-89
2023/05/28 14:19:06;;;;;;;7.20;4.60;;;;;;;;;;6159678;23;20373;-92
2023/05/28 14:21:32;;;;;;;7.70;4.60;;;;;;;;;;6136516;23;20464;-92
2023/05/28 14:23:58;;;;;;;5.60;4.30;;;;;;;;;;6136333;23;20389;-92
2023/05/28 14:26:27;;;;;;;6.10;4.17;;;;;;;;;;6134213;23;20463;-93
2023/05/28 14:28:53;;;;;;;5.33;3.80;;;;;;;;;;6135901;23;20409;-92
2023/05/28 14:31:19;;;;;;;7.50;4.20;;;;;;;;;;6137354;23;20408;-91
2023/05/28 14:33:45;;;;;;;6.97;4.17;;;;;;;;;;6106485;23;20386;-92
2023/05/28 14:36:11;;;;;;;10.43;4.30;;;;;;;;;;6080912;23;20385;-91
2023/05/28 14:38:37;;;;;;;6.00;4.77;;;;;;;;;;6048307;23;20452;-90